x

Canaveral 20 Nm East Of Cape Canaveral, Fl (41009) Wave Buoy

4:50am - Mon 21st Apr 2014 All times are EDT. -4 hours from GMT.

  • Sig Wave height 6.6ft
  • Swell Direction
  • Peak Period 8s
  • Average Period 5s
  • Wind
    25mph, 29mph gusts
  • Sea Temp 70°f
  • Air Temp 66°f
  • Sea Pressure 1015.1mb
  • Canaveral 20 Nm East Of Cape Canaveral, Fl
  • Canaveral 20 Nm East Of Cape Canaveral, Fl

More Historic Weather Station data

Upgrade to MSW Pro to gain access to the past 30 days of data for over 8000 Wavebouys and Weather Stations around the globe.

Join Pro

Comparision Forecast

View Surf forecast
   
Mon 04/21 4:50am 6.5ft 8s 5s 25 29 mph 1015.1mb 70f 66f
4:20am  -   -   -  25 29 mph 1015.1mb 70f 66f
3:50am 6.5ft 9s 5s 22 27 mph 1015.4mb 70f 66f
3:20am  -   -   -  25 29 mph 1015.4mb 70f 66f
2:50am 6.5ft 10s 5s 25 29 mph 1015.5mb 70f 66f
2:20am  -   -   -  27 31 mph 1015.5mb 70f 66f
1:50am 7ft 10s 6s 27 31 mph 1015.6mb 70f 66f
1:20am  -   -   -  27 31 mph 1016mb 70f 66f
12:50am 6ft 11s 5s 25 29 mph 1016.5mb 71f 66f
12:20am  -   -   -  22 27 mph 1016.9mb 71f 65f
Sun 04/20 11:50pm 7ft 9s 6s 22 27 mph 1016.9mb 71f 65f
11:20pm  -   -   -  22 25 mph 1017.2mb 71f 65f
10:50pm 6.5ft 6s 6s 22 27 mph 1017.3mb 71f 65f
10:20pm  -   -   -  25 27 mph 1017.2mb 71f 65f
9:50pm 7ft 8s 5s 22 27 mph 1017.6mb 71f 65f
9:20pm  -   -   -  25 29 mph 1017.3mb 71f 65f
8:50pm 6.5ft 6s 5s 25 31 mph 1017mb 71f 65f
8:20pm  -   -   -  25 29 mph 1016.8mb 71f 65f
7:50pm 6.5ft 6s 5s 25 29 mph 1016.6mb 71f 65f
7:20pm  -   -   -  25 27 mph 1016.6mb 71f 65f
6:50pm 6.5ft 6s 5s 25 29 mph 1016.7mb 71f 65f
6:20pm  -   -   -  25 29 mph 1016.4mb 71f 65f
5:50pm 6.5ft 6s 5s 25 29 mph 1016.2mb 71f 65f
5:20pm  -   -   -  25 29 mph 1016.3mb 71f 65f
4:50pm 7ft 6s 5s 22 27 mph 1016.3mb 71f 65f
4:20pm  -   -   -  22 25 mph 1016.2mb 71f 65f
3:50pm 6.5ft 6s 5s 22 29 mph 1016.1mb 71f 65f
3:20pm  -   -   -  22 27 mph 1016.5mb 71f 65f
2:50pm 6.5ft 6s 5s 22 27 mph 1016.6mb 71f 65f
2:20pm  -   -   -  22 27 mph 1016.8mb 71f 65f
1:50pm 7ft 6s 5s 22 27 mph 1016.5mb 71f 65f
1:20pm  -   -   -  25 29 mph 1016.5mb 71f 65f
12:50pm 6.5ft 6s 5s 25 29 mph 1016.5mb 71f 65f
12:20pm  -   -   -  25 29 mph 1016.3mb 71f 65f
11:50am 7ft 6s 5s 25 29 mph 1016.3mb 71f 66f
11:20am  -   -   -  25 29 mph 1016.3mb 71f 66f
10:50am 7ft 6s 5s 25 29 mph 1016.1mb 71f 67f
10:20am  -   -   -  25 29 mph 1016mb 71f 67f
9:50am 7ft 6s 5s 25 31 mph 1015.5mb 71f 67f
9:20am  -   -   -  25 29 mph 1015.1mb 71f 67f
8:50am 7ft 6s 5s 25 31 mph 1015mb 71f 67f
8:20am  -   -   -  25 29 mph 1014.9mb 71f 67f
7:50am 6.5ft 6s 5s 25 27 mph 1014.5mb 71f 68f
7:20am  -   -   -  25 27 mph 1014.1mb 71f 68f
6:50am 5ft 5s 5s 25 29 mph 1013.6mb 71f 68f
6:20am  -   -   -  22 27 mph 1013.1mb 71f 68f
5:50am 5ft 9s 5s 25 29 mph 1013mb 71f 68f
5:20am  -   -   -  25 29 mph 1012.5mb 71f 67f
4:50am 4.5ft 9s 5s 25 29 mph 1012.2mb 71f 67f
4:20am  -   -   -  18 25 mph 1012.8mb 71f 66f
3:50am 4ft 10s 5s 16 18 mph 1013.1mb 71f 66f
3:20am  -   -   -  16 20 mph 1013.2mb 71f 66f
2:50am 4ft 9s 5s 16 20 mph 1013.5mb 71f 66f
2:20am  -   -   -  13 18 mph 1014mb 72f 66f
1:50am 4.5ft 10s 5s 16 18 mph 1014.3mb 72f 66f
1:20am  -   -   -  16 18 mph 1014.4mb 72f 66f
12:50am 4.5ft 9s 5s 18 20 mph 1014.6mb 72f 67f
12:20am  -   -   -  18 20 mph 1014.5mb 72f 67f
Sat 04/19 11:50pm 4.5ft 10s 5s 18 22 mph 1014.2mb 72f 67f
11:20pm  -   -   -  18 22 mph 1014mb 72f 68f
10:50pm 4.5ft 11s 5s 20 22 mph 1013.6mb 72f 68f
10:20pm  -   -   -  20 22 mph 1013.6mb 72f 69f
9:50pm 4.5ft 10s 5s 20 25 mph 1013.1mb 72f 69f
9:20pm  -   -   -  20 22 mph 1013mb 72f 71f
8:50pm 4ft 9s 6s 18 22 mph 1012.8mb 72f 71f
7:50pm 4.5ft 11s 6s 16 20 mph 1012.3mb 72f 72f
7:20pm  -   -   -  16 20 mph 1012mb 72f 74f
6:50pm 4ft 11s 6s 18 20 mph 1011.8mb 73f 74f
6:20pm  -   -   -  13 18 mph 1011.6mb 73f 74f
5:50pm 4.5ft 10s 6s 9 11 mph 1011.5mb 73f 74f
5:20pm  -   -   -  9 11 mph 1011.3mb 73f 74f
4:50pm 4.5ft 10s 6s 9
mph
1011.5mb 73f 74f
4:20pm  -   -   -  9 11 mph 1011.7mb 73f 74f
3:50pm 4.5ft 9s 6s 11 16 mph 1011.9mb 73f 74f
3:20pm  -   -   -  11 13 mph 1012.2mb 73f 74f
2:50pm 4.5ft 10s 6s 9 11 mph 1012.5mb 72f 73f
2:20pm  -   -   -  13 16 mph 1012.7mb 73f 74f
1:50pm 4.5ft 10s 6s 9 13 mph 1012.9mb 72f 73f
1:20pm  -   -   -  7 9 mph 1012.8mb 73f 73f
12:50pm 5ft 11s 6s 7 9 mph 1013.1mb 72f 73f
12:20pm  -   -   -  11 13 mph 1013.2mb 72f 73f
11:50am 5ft 10s 6s 11 16 mph 1013.2mb 72f 73f
11:20am  -   -   -  9 13 mph 1013.3mb 72f 72f
10:50am 5ft 9s 6s 11 13 mph 1013.4mb 72f 72f
10:20am  -   -   -  13 18 mph 1013.3mb 72f 72f
9:50am 5ft 10s 6s 13 16 mph 1013.3mb 72f 72f
9:20am  -   -   -  16 18 mph 1013.2mb 72f 72f
8:50am 5.5ft 10s 6s 16 20 mph 1013.2mb 72f 73f
8:20am  -   -   -  16 20 mph 1012.9mb 72f 73f
7:50am 5.5ft 9s 6s 16 18 mph 1012.7mb 72f 73f
7:20am  -   -   -  20 22 mph 1012.7mb 72f 73f
6:50am 5.5ft 9s 6s 13 18 mph 1013mb 72f 73f
6:20am  -   -   -  18 20 mph 1012.4mb 72f 73f
5:50am 6ft 10s 6s 13 18 mph 1012.4mb 72f 73f
5:20am  -   -   -  13 16 mph 1011.9mb 72f 73f
4:50am 6ft 9s 6s 13 16 mph 1011.9mb 72f 73f
4:20am  -   -   -  11 16 mph 1012mb 72f 73f
3:50am 6ft 11s 6s 11 16 mph 1012.2mb 72f 73f
3:20am  -   -   -  16 18 mph 1012.1mb 72f 73f
2:50am 6.5ft 10s 6s 16 18 mph 1012.6mb 72f 73f
2:20am  -   -   -  18 22 mph 1013mb 72f 73f
1:50am 6.5ft 10s 6s 16 20 mph 1012.9mb 72f 74f
1:20am  -   -   -  18 20 mph 1013.2mb 73f 73f
12:50am 6.5ft 10s 6s 16 18 mph 1013.6mb 73f 73f
12:20am  -   -   -  18 25 mph 1013.8mb 73f 73f
Fri 04/18 11:50pm 7ft 10s 7s 9 11 mph 1014.6mb 73f 73f
11:20pm  -   -   -  7 9 mph 1014.1mb 73f 73f
10:50pm 6.5ft 10s 6s 16 18 mph 1014mb 73f 73f
10:20pm  -   -   -  18 22 mph 1014mb 73f 75f
9:50pm 6ft 10s 6s 18 22 mph 1014.2mb 74f 76f
9:20pm  -   -   -  18 20 mph 1014.4mb 74f 76f
8:50pm 6.5ft 9s 6s 18 22 mph 1014mb 74f 76f
8:20pm  -   -   -  16 20 mph 1014mb 74f 76f
7:50pm 6ft 10s 6s 16 20 mph 1014.2mb 74f 76f
7:20pm  -   -   -  16 18 mph 1014.5mb 74f 76f
6:50pm 6.5ft 8s 6s 16 18 mph 1014.6mb 74f 76f
6:20pm  -   -   -  16 18 mph 1015.2mb 74f 76f
5:50pm 6.5ft 10s 6s 16 20 mph 1015.2mb 74f 76f
5:20pm  -   -   -  18 20 mph 1015.2mb 74f 76f
4:50pm 6ft 9s 6s 18 20 mph 1015.3mb 74f 76f
4:20pm  -   -   -  18 20 mph 1015.4mb 74f 76f
3:50pm 7ft 9s 6s 16 20 mph 1015.9mb 74f 76f
3:20pm  -   -   -  16 20 mph 1016.2mb 74f 76f
2:50pm 6ft 9s 6s 18 20 mph 1016.6mb 74f 76f
2:20pm  -   -   -  18 22 mph 1016.9mb 74f 76f
1:50pm 6ft 8s 6s 20 25 mph 1016.8mb 74f 76f
1:20pm  -   -   -  16 20 mph 1017.2mb 74f 75f
12:50pm 6.5ft 9s 6s 18 20 mph 1017.4mb 74f 75f
12:20pm  -   -   -  20 22 mph 1017.4mb 74f 75f
11:50am 7ft 10s 6s 18 22 mph 1017.8mb 74f 75f
11:20am  -   -   -  18 22 mph 1018mb 74f 75f
10:50am 8ft 8s 6s 16 20 mph 1018.1mb 74f 74f
10:20am  -   -   -  16 20 mph 1018.4mb 74f 74f
9:50am 7.5ft 8s 6s 11 13 mph 1019mb 74f 71f
8:50am 8ft 9s 6s 20 25 mph 1018.6mb 74f 74f
8:20am  -   -   -  18 22 mph 1018.4mb 74f 74f
7:50am 7.5ft 10s 6s 22 27 mph 1017.8mb 74f 74f
7:20am  -   -   -  20 25 mph 1018.3mb 74f 74f
6:50am 8ft 10s 6s 22 27 mph 1018.3mb 74f 74f
6:20am  -   -   -  20 25 mph 1018mb 74f 73f
5:50am 8ft 9s 6s 22 27 mph 1017.9mb 74f 73f
5:20am  -   -   -  25 31 mph 1017.4mb 74f 73f
4:50am 8ft 9s 6s 22 27 mph 1018.5mb 74f 73f
4:20am  -   -   -  18 22 mph 1018.8mb 74f 72f
3:50am 7.5ft 8s 6s 20 25 mph 1019.2mb 74f 73f
3:20am  -   -   -  22 27 mph 1019.4mb 74f 74f
2:50am 8ft 7s 6s 22 27 mph 1019.4mb 74f 74f
2:20am  -   -   -  22 29 mph 1020mb 74f 74f
1:50am 8ft 8s 6s 22 27 mph 1020.2mb 74f 74f
1:20am  -   -   -  25 29 mph 1020.5mb 74f 74f
12:50am 9ft 9s 6s 22 29 mph 1020.7mb 74f 73f
12:20am  -   -   -  25 27 mph 1020.8mb 74f 74f
Thu 04/17 11:50pm 8ft 9s 6s 22 27 mph 1021.4mb 74f 74f
11:20pm  -   -   -  22 27 mph 1021.6mb 74f 74f
10:50pm 9ft 9s 6s 22 27 mph 1021.4mb 74f 74f
10:20pm  -   -   -  25 29 mph 1021mb 74f 74f
9:50pm 8ft 9s 6s 22 29 mph 1021.3mb 74f 74f
9:20pm  -   -   -  22 27 mph 1021.4mb 74f 74f
8:50pm 8ft 9s 6s 22 25 mph 1021.4mb 75f 74f
8:20pm  -   -   -  22 27 mph 1021.4mb 75f 74f
7:50pm 8ft 8s 6s 20 25 mph 1021.5mb 75f 74f
7:20pm  -   -   -  22 29 mph 1021.1mb 75f 74f
6:50pm 9ft 9s 7s 22 27 mph 1020.7mb 75f 74f
6:20pm  -   -   -  22 29 mph 1020.6mb 75f 74f
5:50pm 8ft 9s 6s 25 29 mph 1020.9mb 75f 74f
5:20pm  -   -   -  22 27 mph 1021.3mb 75f 74f
4:50pm 8ft 9s 6s 22 27 mph 1021.3mb 75f 74f
4:20pm  -   -   -  22 27 mph 1021.3mb 75f 73f
3:50pm 9ft 8s 7s 22 27 mph 1021.9mb 75f 73f
3:20pm  -   -   -  25 29 mph 1022mb 75f 73f
2:50pm 8.5ft 9s 7s 25 29 mph 1022.4mb 75f 73f
2:20pm  -   -   -  22 27 mph 1022.9mb 75f 73f
1:50pm 8ft 9s 6s 22 27 mph 1023mb 75f 73f
1:20pm  -   -   -  25 27 mph 1023mb 75f 73f
12:50pm 8.5ft 9s 6s 22 27 mph 1023.1mb 75f 73f
12:20pm  -   -   -  22 27 mph 1023.2mb 75f 73f
11:50am 8ft 10s 6s 25 29 mph 1023.1mb 75f 73f
11:20am  -   -   -  22 27 mph 1023mb 74f 73f
10:50am 7.5ft 11s 6s 25 29 mph 1022.9mb 74f 73f
10:20am  -   -   -  22 29 mph 1022.6mb 74f 73f
9:50am 7ft 10s 6s 22 27 mph 1022mb 74f 73f